createdAt,value
2023-11-05T00:02:40.153Z,2.00
2023-11-05T00:07:43.178Z,2.15
2023-11-05T00:12:45.390Z,2.58
2023-11-05T00:17:47.599Z,3.08
2023-11-05T00:22:49.772Z,2.42
2023-11-05T00:27:51.883Z,4.35
2023-11-05T00:32:54.040Z,3.08
2023-11-05T00:37:56.256Z,1.27
2023-11-05T00:43:16.932Z,9.40
2023-11-05T00:48:19.186Z,3.53
2023-11-05T00:53:25.755Z,5.25
2023-11-05T00:58:29.622Z,1.20
2023-11-05T01:03:33.066Z,0.88
2023-11-05T01:08:35.636Z,3.50
2023-11-05T01:13:37.814Z,1.02
2023-11-05T01:18:44.474Z,1.10
2023-11-05T01:23:46.901Z,1.48
2023-11-05T01:28:49.506Z,1.67
2023-11-05T01:33:51.684Z,3.55
2023-11-05T01:38:53.792Z,3.05
2023-11-05T01:43:56.221Z,2.85
2023-11-05T01:48:59.814Z,4.10
2023-11-05T01:54:02.164Z,1.75
2023-11-05T01:59:05.445Z,5.57
2023-11-05T02:04:09.865Z,4.07
2023-11-05T02:09:12.560Z,5.03
2023-11-05T02:14:15.383Z,2.45
2023-11-05T02:19:17.533Z,1.15
2023-11-05T02:24:20.249Z,1.70
2023-11-05T02:29:22.431Z,2.38
2023-11-05T02:34:24.556Z,1.83
2023-11-05T02:39:29.646Z,4.93
2023-11-05T02:44:31.811Z,2.38
2023-11-05T02:49:34.699Z,3.50
2023-11-05T02:54:36.841Z,2.92
2023-11-05T02:59:38.996Z,1.15
2023-11-05T03:04:41.197Z,6.65
2023-11-05T03:09:45.223Z,2.53
2023-11-05T03:14:47.357Z,3.72
2023-11-05T03:19:49.495Z,3.03
2023-11-05T03:24:51.661Z,2.47
2023-11-05T03:29:53.767Z,4.32
2023-11-05T03:34:56.344Z,2.35
2023-11-05T03:39:58.557Z,8.00
2023-11-05T03:45:00.858Z,19.23
2023-11-05T03:50:03.127Z,6.43
2023-11-05T03:55:06.230Z,4.20
2023-11-05T04:00:10.884Z,7.68
2023-11-05T04:05:15.813Z,7.25
2023-11-05T04:10:18.483Z,5.72
2023-11-05T04:15:20.667Z,5.97
2023-11-05T04:20:22.914Z,2.22
2023-11-05T04:25:25.043Z,9.80
2023-11-05T04:30:27.150Z,7.80
2023-11-05T04:35:29.228Z,6.03
2023-11-05T04:40:31.418Z,4.93
2023-11-05T04:45:35.719Z,4.53
2023-11-05T04:50:38.195Z,3.72
2023-11-05T04:55:40.351Z,3.55
2023-11-05T05:00:43.041Z,6.50
2023-11-05T05:05:45.498Z,3.95
2023-11-05T05:10:47.812Z,4.32
2023-11-05T05:15:50.018Z,2.60
2023-11-05T05:20:53.117Z,3.08
2023-11-05T05:25:55.266Z,9.65
2023-11-05T05:30:57.486Z,7.70
2023-11-05T05:35:59.645Z,4.10
2023-11-05T05:41:01.918Z,6.93
2023-11-05T05:46:04.398Z,3.22
2023-11-05T05:51:13.993Z,2.78
2023-11-05T05:56:16.133Z,5.38
2023-11-05T06:01:20.151Z,8.95
2023-11-05T06:06:25.204Z,4.50
2023-11-05T06:11:28.722Z,3.65
2023-11-05T06:16:30.827Z,6.50
2023-11-05T06:21:32.988Z,5.90
2023-11-05T06:26:35.111Z,4.57
2023-11-05T06:31:37.289Z,6.22
2023-11-05T06:36:57.584Z,3.13
2023-11-05T06:41:59.772Z,5.70
2023-11-05T06:47:01.921Z,8.10
2023-11-05T06:52:04.329Z,2.65
2023-11-05T06:57:07.295Z,4.03
2023-11-05T07:02:14.497Z,2.38
2023-11-05T07:07:16.665Z,9.77
2023-11-05T07:12:18.837Z,3.63
2023-11-05T07:17:21.357Z,4.53
2023-11-05T07:22:23.676Z,3.30
2023-11-05T07:27:25.977Z,14.77
2023-11-05T07:32:28.283Z,3.08
2023-11-05T07:37:30.570Z,4.63
2023-11-05T07:42:32.913Z,1.98
2023-11-05T07:47:35.063Z,4.05
2023-11-05T07:52:37.302Z,5.25
2023-11-05T07:57:39.960Z,2.40
2023-11-05T08:02:42.369Z,3.40
2023-11-05T08:07:44.643Z,2.78
2023-11-05T08:12:46.936Z,3.55
2023-11-05T08:17:49.221Z,3.17
2023-11-05T08:22:51.454Z,5.78
2023-11-05T08:27:55.194Z,4.95
2023-11-05T08:32:57.634Z,4.80
2023-11-05T08:37:59.779Z,4.40
2023-11-05T08:43:03.386Z,3.83
2023-11-05T08:48:06.059Z,4.63
2023-11-05T08:53:09.170Z,8.55
2023-11-05T08:58:11.390Z,6.95
2023-11-05T09:03:13.872Z,4.70
2023-11-05T09:08:16.293Z,3.53
2023-11-05T09:13:18.643Z,5.63
2023-11-05T09:18:20.894Z,5.03
2023-11-05T09:23:23.466Z,4.55
2023-11-05T09:28:30.981Z,4.15
2023-11-05T09:33:33.205Z,3.85
2023-11-05T09:38:35.857Z,7.55
2023-11-05T09:43:37.980Z,4.13
2023-11-05T09:48:40.224Z,5.50
2023-11-05T09:53:42.437Z,3.80
2023-11-05T09:58:45.231Z,9.80
2023-11-05T10:03:48.387Z,9.38
2023-11-05T10:08:50.803Z,8.85
2023-11-05T10:13:53.032Z,3.28
2023-11-05T10:18:56.441Z,4.13
2023-11-05T10:24:00.586Z,5.28
2023-11-05T10:29:03.376Z,3.42
2023-11-05T10:34:08.321Z,5.63
2023-11-05T10:39:12.285Z,3.17
2023-11-05T10:44:16.742Z,4.00
2023-11-05T10:49:20.155Z,21.65
2023-11-05T10:54:23.255Z,11.15
2023-11-05T10:59:36.025Z,32.38
2023-11-05T11:04:39.057Z,6.18
2023-11-05T11:09:41.856Z,8.88
2023-11-05T11:14:43.997Z,7.18
2023-11-05T11:19:46.731Z,5.15
2023-11-05T11:24:49.256Z,4.68
2023-11-05T11:29:51.565Z,5.90
2023-11-05T11:34:53.742Z,8.02
2023-11-05T11:39:58.291Z,4.00
2023-11-05T11:45:00.743Z,4.03
2023-11-05T11:50:10.753Z,13.07
2023-11-05T11:55:13.047Z,5.00
2023-11-05T12:00:17.920Z,2.38
2023-11-05T12:05:22.173Z,2.67
2023-11-05T12:10:24.739Z,8.20
2023-11-05T12:15:28.535Z,5.05
2023-11-05T12:20:31.489Z,2.08
2023-11-05T12:25:34.564Z,3.35
2023-11-05T12:30:37.144Z,8.23
2023-11-05T12:35:39.369Z,4.95
2023-11-05T12:40:42.072Z,5.32
2023-11-05T12:45:45.028Z,2.80
2023-11-05T12:50:47.449Z,3.42
2023-11-05T12:55:58.605Z,6.18
2023-11-05T13:01:02.817Z,4.75
2023-11-05T13:06:10.632Z,8.23
2023-11-05T13:11:15.146Z,1.88
2023-11-05T13:16:18.615Z,7.32
2023-11-05T13:21:21.178Z,5.32
2023-11-05T13:26:23.252Z,5.80
2023-11-05T13:31:27.988Z,9.65
2023-11-05T13:36:30.531Z,2.65
2023-11-05T13:41:32.759Z,9.48
2023-11-05T13:46:35.023Z,2.13
2023-11-05T13:51:37.301Z,4.20
2023-11-05T13:56:40.172Z,5.15
2023-11-05T14:01:42.455Z,4.20
2023-11-05T14:06:45.541Z,3.00
2023-11-05T14:11:47.719Z,5.15
2023-11-05T14:16:49.922Z,6.93
2023-11-05T14:21:54.549Z,1.90
2023-11-05T14:26:58.018Z,3.28
2023-11-05T14:32:01.027Z,3.78
2023-11-05T14:37:03.727Z,2.75
2023-11-05T14:42:06.362Z,4.18
2023-11-05T14:47:09.713Z,4.53
2023-11-05T14:52:12.916Z,2.22
2023-11-05T14:57:17.139Z,2.88
2023-11-05T15:02:19.677Z,1.98
2023-11-05T15:07:21.967Z,5.10
2023-11-05T15:12:24.197Z,5.90
2023-11-05T15:17:26.683Z,4.03
2023-11-05T15:22:30.194Z,4.22
2023-11-05T15:27:32.498Z,4.97
2023-11-05T15:32:43.378Z,2.75
2023-11-05T15:37:45.714Z,4.43
2023-11-05T15:42:51.721Z,8.98
2023-11-05T15:47:54.338Z,8.45
2023-11-05T15:52:56.668Z,10.13
2023-11-05T15:57:59.972Z,4.95
2023-11-05T16:03:02.372Z,6.43
2023-11-05T16:08:04.823Z,7.18
2023-11-05T16:13:07.035Z,5.38
2023-11-05T16:18:14.231Z,6.72
2023-11-05T16:23:17.198Z,11.25
2023-11-05T16:28:19.544Z,4.00
2023-11-05T16:33:25.107Z,10.48
2023-11-05T16:38:27.743Z,3.50
2023-11-05T16:43:29.938Z,4.40
2023-11-05T16:48:32.125Z,15.70
2023-11-05T16:53:34.714Z,10.27
2023-11-05T16:58:43.310Z,9.20
2023-11-05T17:03:48.959Z,14.70
2023-11-05T17:08:51.124Z,9.93
2023-11-05T17:13:53.341Z,13.35
2023-11-05T17:19:10.497Z,13.60
2023-11-05T17:24:13.559Z,22.08
2023-11-05T17:29:22.899Z,12.43
2023-11-05T17:34:25.344Z,5.25
2023-11-05T17:39:27.611Z,8.25
2023-11-05T17:44:30.517Z,7.35
2023-11-05T17:49:33.908Z,6.30
2023-11-05T17:54:36.713Z,7.18
2023-11-05T17:59:39.626Z,5.05
2023-11-05T18:04:42.131Z,8.38
2023-11-05T18:09:44.670Z,17.05
2023-11-05T18:14:47.631Z,14.48
2023-11-05T18:19:50.781Z,12.52
2023-11-05T18:24:53.167Z,10.10
2023-11-05T18:29:58.818Z,8.45
2023-11-05T18:35:01.787Z,16.15
2023-11-05T18:40:04.227Z,29.70
2023-11-05T18:45:09.157Z,11.55
2023-11-05T18:50:11.374Z,9.35
2023-11-05T18:55:13.578Z,7.38
2023-11-05T19:00:16.228Z,9.75
2023-11-05T19:05:18.493Z,5.93
2023-11-05T19:10:20.622Z,9.48
2023-11-05T19:15:23.359Z,9.18
2023-11-05T19:20:25.679Z,7.38
2023-11-05T19:25:27.817Z,9.38
2023-11-05T19:30:30.000Z,6.32
2023-11-05T19:35:32.676Z,8.27
2023-11-05T19:40:35.579Z,4.45
2023-11-05T19:45:38.199Z,8.13
2023-11-05T19:50:40.737Z,11.85
2023-11-05T19:55:43.909Z,8.30
2023-11-05T20:00:46.090Z,6.10
2023-11-05T20:05:48.387Z,5.28
2023-11-05T20:10:50.752Z,6.22
2023-11-05T20:15:52.923Z,7.78
2023-11-05T20:20:57.013Z,6.53
2023-11-05T20:25:59.173Z,4.35
2023-11-05T20:31:01.411Z,4.07
2023-11-05T20:36:03.600Z,6.15
2023-11-05T20:41:05.767Z,14.32
2023-11-05T20:46:08.102Z,7.15
2023-11-05T20:51:20.521Z,3.80
2023-11-05T20:56:22.824Z,5.55
2023-11-05T21:01:25.021Z,4.68
2023-11-05T21:06:27.451Z,7.78
2023-11-05T21:11:29.646Z,4.88
2023-11-05T21:16:32.173Z,5.30
2023-11-05T21:21:34.467Z,6.35
2023-11-05T21:26:36.683Z,7.25
2023-11-05T21:31:39.891Z,8.88
2023-11-05T21:36:42.040Z,8.88
2023-11-05T21:41:48.763Z,14.35
2023-11-05T21:46:50.918Z,6.03
2023-11-05T21:51:53.056Z,12.82
2023-11-05T21:56:55.182Z,11.73
2023-11-05T22:01:57.572Z,17.73
2023-11-05T22:06:59.697Z,12.65
2023-11-05T22:12:02.047Z,10.45
2023-11-05T22:17:04.430Z,13.38
2023-11-05T22:22:07.053Z,7.35
2023-11-05T22:27:09.481Z,21.08
2023-11-05T22:32:12.200Z,19.20
2023-11-05T22:37:14.542Z,26.00
2023-11-05T22:42:16.744Z,15.13
2023-11-05T22:47:19.031Z,18.55
2023-11-05T22:52:21.273Z,31.48
2023-11-05T22:57:23.426Z,21.70
2023-11-05T23:02:26.389Z,23.13
2023-11-05T23:07:28.569Z,20.77
2023-11-05T23:12:30.823Z,19.52
2023-11-05T23:17:33.083Z,21.23
2023-11-05T23:22:35.301Z,28.10
2023-11-05T23:27:37.575Z,16.20
2023-11-05T23:32:39.830Z,21.48
2023-11-05T23:37:42.946Z,9.57
2023-11-05T23:42:45.084Z,12.13
2023-11-05T23:47:47.333Z,12.23
2023-11-05T23:52:52.524Z,14.45
2023-11-05T23:57:57.565Z,8.40
